Valdez Pioneer Field
PAVD : now visible

Airfield :











YOU CAN JOIN US ON...

 
LOGIN :

Register | Disclaimer

   EN    FR    IT 

 









Legend :    VFR   Marginal VFR   IFR   Intensive IFR   Very Intensive IFR
Visi :
Ceiling :
>= 8 km
>= 3000ft
5 to 8 km
1000 to 3000 ft
1500m to 5 km
500 to 1000 ft
800 to 1500m
200 to 500 ft
< 800m
< 200 ft
Symbols :   Thunderstorms  Fog  Heavy snow  Heavy precipitations  Wind > 20 kt






- Airport Elevation : 121 ft
- IATA code : VDZ


PAVD - Valdez Pioneer Field

CURRENT METAR :
  • 272156Z 08017G27KT 10SM CLR 10/M12 A2953 RMK AO2 PK WND 07031/2114 SLP000 T01001122

EXPIRED METARs :
  • 272056Z 10015G24KT 10SM CLR 10/M12 A2954 RMK AO2 PK WND 08027/2044 SLP002 T01001122 56014
  • 271956Z 09011G20KT 10SM CLR 09/M12 A2955 RMK AO2 SLP003 T00941122

TAF PAVD
Valid from the 27 at 18:00 until the 28 at 18:00 UTC


271724Z 2718/2818 VRB05KT P6SM SKC
TEMPO 2718/2722 08010G18KT AMD LTD TO CLD VIS AND WIND
PAZA FIR / North America



MET'MAP, your aeronautical weather chart ! - Copyright ORBIFLY December 2007 - Disclaimer

ORBIFLY MET'MAP TEAM :

Programming & Development : Alexandra Zaïnal
Concept & original design : Baudouin d'Aumeries
Assistance for programming : Marc-Olivier Méhu
Technical & hardware support : Manuel Goepfert

Contact : metmap@orbifly.com




SOURCES & CREDITS :

   NOAA       Earth
Advisory